createdAt,value
2023-05-20T00:01:28.087Z,3.10
2023-05-20T00:03:54.867Z,2.63
2023-05-20T00:06:21.541Z,1.70
2023-05-20T00:08:48.365Z,1.52
2023-05-20T00:11:14.874Z,1.33
2023-05-20T00:13:41.388Z,2.45
2023-05-20T00:16:08.080Z,1.33
2023-05-20T00:18:34.659Z,1.92
2023-05-20T00:21:01.372Z,1.63
2023-05-20T00:23:27.921Z,2.33
2023-05-20T00:25:54.464Z,2.15
2023-05-20T00:28:21.763Z,1.23
2023-05-20T00:30:48.272Z,1.45
2023-05-20T00:33:14.795Z,2.00
2023-05-20T00:35:41.378Z,1.88
2023-05-20T00:38:07.942Z,1.95
2023-05-20T00:40:34.477Z,2.13
2023-05-20T00:43:01.472Z,0.90
2023-05-20T00:45:28.501Z,2.00
2023-05-20T00:47:59.553Z,2.20
2023-05-20T00:50:26.185Z,2.35
2023-05-20T00:52:55.376Z,1.73
2023-05-20T00:55:22.746Z,1.52
2023-05-20T00:57:50.458Z,1.63
2023-05-20T01:00:17.204Z,1.35
2023-05-20T01:02:44.137Z,1.45
2023-05-20T01:05:10.861Z,2.33
2023-05-20T01:07:38.096Z,1.67
2023-05-20T01:10:05.139Z,1.10
2023-05-20T01:12:46.383Z,1.40
2023-05-20T01:15:16.104Z,1.27
2023-05-20T01:17:58.017Z,1.45
2023-05-20T01:20:25.372Z,1.25
2023-05-20T01:22:56.996Z,1.77
2023-05-20T01:25:25.177Z,2.33
2023-05-20T01:27:52.934Z,2.00
2023-05-20T01:30:21.158Z,1.10
2023-05-20T01:32:55.026Z,1.15
2023-05-20T01:35:23.376Z,2.25
2023-05-20T01:37:52.226Z,1.85
2023-05-20T01:40:19.427Z,1.67
2023-05-20T01:42:46.683Z,3.83
2023-05-20T01:45:13.415Z,2.00
2023-05-20T01:47:40.085Z,1.58
2023-05-20T01:50:07.443Z,0.98
2023-05-20T01:52:33.992Z,1.45
2023-05-20T01:55:00.576Z,1.85
2023-05-20T01:57:27.258Z,1.25
2023-05-20T01:59:53.857Z,1.20
2023-05-20T02:02:20.597Z,1.48
2023-05-20T02:04:50.700Z,1.45
2023-05-20T02:07:18.997Z,1.33
2023-05-20T02:09:46.411Z,1.00
2023-05-20T02:12:16.946Z,1.25
2023-05-20T02:14:47.849Z,1.60
2023-05-20T02:17:16.925Z,1.15
2023-05-20T02:19:47.325Z,1.67
2023-05-20T02:24:40.783Z,2.45
2023-05-20T02:27:07.513Z,1.38
2023-05-20T02:29:34.350Z,1.85
2023-05-20T02:32:01.017Z,1.02
2023-05-20T02:34:28.094Z,1.95
2023-05-20T02:36:54.747Z,1.85
2023-05-20T02:39:21.328Z,1.67
2023-05-20T02:41:48.281Z,1.42
2023-05-20T02:44:15.468Z,1.33
2023-05-20T02:46:42.121Z,1.30
2023-05-20T02:49:08.838Z,2.28
2023-05-20T02:51:35.507Z,1.05
2023-05-20T02:54:02.074Z,1.48
2023-05-20T02:56:28.766Z,1.20
2023-05-20T02:58:55.654Z,0.90
2023-05-20T03:01:23.358Z,1.08
2023-05-20T03:03:49.988Z,1.42
2023-05-20T03:06:16.634Z,1.20
2023-05-20T03:08:43.170Z,1.10
2023-05-20T03:11:09.750Z,2.05
2023-05-20T03:13:36.350Z,1.63
2023-05-20T03:16:03.357Z,1.00
2023-05-20T03:18:30.042Z,1.42
2023-05-20T03:20:56.839Z,1.33
2023-05-20T03:23:23.474Z,1.95
2023-05-20T03:25:50.323Z,1.70
2023-05-20T03:28:17.064Z,1.38
2023-05-20T03:30:43.647Z,1.02
2023-05-20T03:33:10.692Z,1.50
2023-05-20T03:35:37.515Z,2.30
2023-05-20T03:38:04.436Z,1.20
2023-05-20T03:40:31.180Z,1.10
2023-05-20T03:42:57.778Z,1.40
2023-05-20T03:45:24.511Z,1.75
2023-05-20T03:47:51.801Z,2.15
2023-05-20T03:50:18.716Z,1.00
2023-05-20T03:52:45.346Z,1.25
2023-05-20T03:55:11.869Z,1.30
2023-05-20T03:57:38.482Z,1.30
2023-05-20T04:00:11.992Z,1.08
2023-05-20T04:02:38.793Z,1.17
2023-05-20T04:05:08.592Z,1.10
2023-05-20T04:07:35.869Z,1.48
2023-05-20T04:10:03.835Z,1.30
2023-05-20T04:12:32.227Z,1.70
2023-05-20T04:15:02.478Z,1.23
2023-05-20T04:17:32.462Z,1.30
2023-05-20T04:20:02.106Z,1.17
2023-05-20T04:22:28.702Z,1.52
2023-05-20T04:24:56.682Z,1.45
2023-05-20T04:27:23.767Z,1.45
2023-05-20T04:29:50.329Z,1.80
2023-05-20T04:32:20.060Z,1.00
2023-05-20T04:34:46.913Z,1.90
2023-05-20T04:37:13.898Z,1.15
2023-05-20T04:39:40.462Z,1.33
2023-05-20T04:42:06.991Z,1.10
2023-05-20T04:44:33.664Z,1.00
2023-05-20T04:47:00.421Z,1.30
2023-05-20T04:49:27.280Z,1.45
2023-05-20T04:51:55.460Z,1.00
2023-05-20T04:54:22.177Z,1.65
2023-05-20T04:56:48.708Z,1.38
2023-05-20T04:59:15.295Z,1.67
2023-05-20T05:01:41.945Z,2.17
2023-05-20T05:04:08.621Z,1.75
2023-05-20T05:06:35.203Z,1.40
2023-05-20T05:09:01.892Z,1.58
2023-05-20T05:11:28.415Z,1.20
2023-05-20T05:13:55.353Z,1.75
2023-05-20T05:16:22.153Z,1.10
2023-05-20T05:18:48.782Z,1.65
2023-05-20T05:21:15.393Z,1.40
2023-05-20T05:23:42.606Z,1.67
2023-05-20T05:26:09.360Z,1.10
2023-05-20T05:28:35.952Z,1.10
2023-05-20T05:31:02.654Z,1.02
2023-05-20T05:33:29.471Z,1.33
2023-05-20T05:35:59.211Z,2.40
2023-05-20T05:38:26.026Z,1.70
2023-05-20T05:40:53.368Z,1.30
2023-05-20T05:43:19.926Z,0.93
2023-05-20T05:45:46.482Z,1.73
2023-05-20T05:48:13.181Z,2.22
2023-05-20T05:50:39.766Z,1.10
2023-05-20T05:53:06.291Z,1.23
2023-05-20T05:55:33.510Z,1.88
2023-05-20T05:58:00.150Z,1.52
2023-05-20T06:00:26.661Z,1.25
2023-05-20T06:02:53.433Z,0.93
2023-05-20T06:05:20.191Z,1.48
2023-05-20T06:07:46.805Z,1.73
2023-05-20T06:10:13.538Z,1.70
2023-05-20T06:12:40.086Z,8.55
2023-05-20T06:15:07.697Z,1.50
2023-05-20T06:17:34.348Z,2.45
2023-05-20T06:20:01.022Z,2.20
2023-05-20T06:22:27.590Z,1.25
2023-05-20T06:24:56.487Z,3.53
2023-05-20T06:27:23.136Z,1.20
2023-05-20T06:29:49.709Z,1.30
2023-05-20T06:32:16.297Z,2.42
2023-05-20T06:34:43.116Z,1.52
2023-05-20T06:37:09.933Z,1.20
2023-05-20T06:39:36.967Z,2.08
2023-05-20T06:42:04.049Z,2.15
2023-05-20T06:44:31.466Z,1.52
2023-05-20T06:46:58.047Z,1.20
2023-05-20T06:49:25.214Z,1.13
2023-05-20T06:51:51.763Z,1.52
2023-05-20T06:54:18.293Z,1.33
2023-05-20T06:56:45.284Z,1.40
2023-05-20T06:59:11.810Z,1.05
2023-05-20T07:01:38.446Z,1.80
2023-05-20T07:04:05.195Z,2.60
2023-05-20T07:06:31.888Z,1.30
2023-05-20T07:08:58.415Z,0.88
2023-05-20T07:11:25.261Z,1.10
2023-05-20T07:13:51.786Z,2.05
2023-05-20T07:16:18.396Z,1.20
2023-05-20T07:18:45.038Z,1.75
2023-05-20T07:21:11.630Z,1.15
2023-05-20T07:23:38.180Z,1.95
2023-05-20T07:26:04.889Z,1.58
2023-05-20T07:28:31.550Z,1.10
2023-05-20T07:31:00.277Z,1.40
2023-05-20T07:33:26.888Z,1.95
2023-05-20T07:35:54.631Z,2.05
2023-05-20T07:38:21.301Z,1.58
2023-05-20T07:40:47.821Z,1.55
2023-05-20T07:43:14.717Z,1.27
2023-05-20T07:45:41.371Z,3.25
2023-05-20T07:48:08.955Z,1.30
2023-05-20T07:50:36.384Z,1.88
2023-05-20T07:53:02.958Z,1.13
2023-05-20T07:55:29.581Z,1.55
2023-05-20T07:57:56.160Z,2.50
2023-05-20T08:00:23.088Z,1.23
2023-05-20T08:02:49.968Z,1.40
2023-05-20T08:05:16.815Z,0.85
2023-05-20T08:07:43.357Z,1.20
2023-05-20T08:10:10.280Z,1.77
2023-05-20T08:12:36.874Z,1.13
2023-05-20T08:15:04.351Z,1.10
2023-05-20T08:17:31.035Z,1.88
2023-05-20T08:19:57.646Z,1.60
2023-05-20T08:22:24.243Z,1.77
2023-05-20T08:24:50.826Z,1.48
2023-05-20T08:27:17.357Z,1.85
2023-05-20T08:29:45.386Z,5.88
2023-05-20T08:32:11.930Z,7.22
2023-05-20T08:34:38.934Z,12.98
2023-05-20T08:37:05.654Z,17.60
2023-05-20T08:39:32.355Z,16.48
2023-05-20T08:41:59.344Z,15.65
2023-05-20T08:44:28.240Z,16.23
2023-05-20T08:46:56.998Z,14.85
2023-05-20T08:49:23.683Z,22.50
2023-05-20T08:51:51.094Z,21.52
2023-05-20T08:54:19.177Z,18.27
2023-05-20T08:56:45.978Z,21.33
2023-05-20T08:59:12.627Z,20.13
2023-05-20T09:01:43.514Z,20.27
2023-05-20T09:04:10.321Z,17.13
2023-05-20T09:06:47.089Z,15.38
2023-05-20T09:09:14.828Z,12.25
2023-05-20T09:11:42.343Z,11.00
2023-05-20T09:14:09.176Z,10.90
2023-05-20T09:16:35.994Z,14.02
2023-05-20T09:19:06.973Z,9.32
2023-05-20T09:21:35.497Z,11.80
2023-05-20T09:24:02.525Z,8.90
2023-05-20T09:26:30.195Z,10.55
2023-05-20T09:28:57.953Z,6.63
2023-05-20T09:31:33.805Z,11.23
2023-05-20T09:34:02.002Z,7.57
2023-05-20T09:36:31.843Z,8.25
2023-05-20T09:39:03.330Z,7.22
2023-05-20T09:41:35.947Z,6.40
2023-05-20T09:44:04.347Z,4.90
2023-05-20T09:46:31.539Z,6.35
2023-05-20T09:48:59.829Z,5.30
2023-05-20T09:51:27.968Z,5.97
2023-05-20T09:53:55.469Z,5.47
2023-05-20T09:56:25.267Z,5.03
2023-05-20T09:58:58.220Z,6.00
2023-05-20T10:01:25.410Z,5.38
2023-05-20T10:03:53.806Z,4.35
2023-05-20T10:06:48.422Z,4.03
2023-05-20T10:09:36.435Z,4.63
2023-05-20T10:12:18.257Z,3.42
2023-05-20T10:15:07.125Z,3.70
2023-05-20T10:17:41.695Z,4.63
2023-05-20T10:20:12.479Z,2.72
2023-05-20T10:22:40.660Z,3.50
2023-05-20T10:25:12.993Z,2.78
2023-05-20T10:27:46.967Z,3.08
2023-05-20T10:30:21.284Z,2.47
2023-05-20T10:32:57.683Z,2.65
2023-05-20T10:35:28.607Z,2.97
2023-05-20T10:38:08.382Z,2.33
2023-05-20T10:40:35.681Z,1.55
2023-05-20T10:43:13.374Z,2.45
2023-05-20T10:45:51.425Z,1.45
2023-05-20T10:48:28.378Z,2.03
2023-05-20T10:50:59.952Z,2.78
2023-05-20T10:53:33.964Z,2.03
2023-05-20T10:56:01.403Z,1.67
2023-05-20T10:58:28.205Z,1.77
2023-05-20T11:00:56.160Z,2.90
2023-05-20T11:03:23.666Z,1.52
2023-05-20T11:05:51.183Z,2.00
2023-05-20T11:08:28.668Z,1.80
2023-05-20T11:10:57.071Z,2.60
2023-05-20T11:13:23.814Z,2.03
2023-05-20T11:15:50.701Z,3.20
2023-05-20T11:18:20.544Z,1.52
2023-05-20T11:20:47.726Z,2.58
2023-05-20T11:23:15.355Z,1.38
2023-05-20T11:25:41.948Z,1.55
2023-05-20T11:28:14.171Z,1.17
2023-05-20T11:30:42.764Z,1.48
2023-05-20T11:33:12.605Z,2.17
2023-05-20T11:35:48.768Z,1.90
2023-05-20T11:38:16.167Z,3.38
2023-05-20T11:40:55.995Z,3.00
2023-05-20T11:43:24.033Z,1.83
2023-05-20T11:45:56.191Z,1.75
2023-05-20T11:48:23.992Z,1.77
2023-05-20T11:50:50.575Z,1.77
2023-05-20T11:53:21.864Z,1.58
2023-05-20T11:55:55.090Z,2.00
2023-05-20T11:58:23.753Z,1.83
2023-05-20T12:00:55.139Z,1.98
2023-05-20T12:03:26.510Z,1.52
2023-05-20T12:05:53.619Z,1.63
2023-05-20T12:08:20.165Z,2.58
2023-05-20T12:10:46.932Z,1.83
2023-05-20T12:13:13.764Z,1.73
2023-05-20T12:15:41.089Z,1.75
2023-05-20T12:18:07.951Z,1.23
2023-05-20T12:20:35.146Z,1.75
2023-05-20T12:23:02.154Z,2.45
2023-05-20T12:25:29.279Z,1.42
2023-05-20T12:27:56.512Z,0.80
2023-05-20T12:30:24.127Z,3.35
2023-05-20T12:32:52.016Z,1.63
2023-05-20T12:35:27.001Z,1.45
2023-05-20T12:37:53.884Z,1.63
2023-05-20T12:40:20.698Z,1.30
2023-05-20T12:42:47.299Z,1.20
2023-05-20T12:45:13.995Z,2.03
2023-05-20T12:47:40.748Z,1.20
2023-05-20T12:50:07.559Z,2.20
2023-05-20T12:52:34.104Z,1.77
2023-05-20T12:55:00.719Z,1.30
2023-05-20T12:57:27.793Z,1.92
2023-05-20T12:59:54.484Z,1.38
2023-05-20T13:02:21.204Z,0.90
2023-05-20T13:04:47.965Z,1.40
2023-05-20T13:07:14.586Z,2.65
2023-05-20T13:09:41.244Z,1.63
2023-05-20T13:12:08.139Z,1.77
2023-05-20T13:14:34.700Z,1.55
2023-05-20T13:17:01.453Z,1.30
2023-05-20T13:19:28.094Z,1.20
2023-05-20T13:21:54.671Z,0.90
2023-05-20T13:24:22.175Z,1.70
2023-05-20T13:26:48.684Z,1.42
2023-05-20T13:29:15.371Z,0.95
2023-05-20T13:31:42.377Z,1.20
2023-05-20T13:34:09.169Z,1.52
2023-05-20T13:36:35.980Z,1.55
2023-05-20T13:39:02.625Z,2.15
2023-05-20T13:41:30.769Z,1.73
2023-05-20T13:43:57.378Z,1.05
2023-05-20T13:46:24.224Z,1.63
2023-05-20T13:48:50.899Z,1.55
2023-05-20T13:51:17.487Z,2.60
2023-05-20T13:53:44.093Z,2.33
2023-05-20T13:56:10.690Z,4.43
2023-05-20T13:58:37.688Z,4.88
2023-05-20T14:01:05.317Z,3.47
2023-05-20T14:03:37.342Z,4.22
2023-05-20T14:06:04.421Z,2.95
2023-05-20T14:08:31.154Z,4.30
2023-05-20T14:10:57.875Z,4.65
2023-05-20T14:13:25.368Z,4.70
2023-05-20T14:15:52.788Z,5.85
2023-05-20T14:18:19.588Z,4.20
2023-05-20T14:20:46.710Z,3.55
2023-05-20T14:23:13.566Z,3.30
2023-05-20T14:25:40.497Z,6.90
2023-05-20T14:28:07.176Z,4.43
2023-05-20T14:30:34.185Z,4.95
2023-05-20T14:33:01.293Z,4.65
2023-05-20T14:35:27.927Z,3.15
2023-05-20T14:37:54.484Z,4.03
2023-05-20T14:40:21.090Z,3.15
2023-05-20T14:42:47.647Z,3.35
2023-05-20T14:45:14.197Z,2.63
2023-05-20T14:47:41.026Z,4.32
2023-05-20T14:50:08.221Z,4.20
2023-05-20T14:52:34.790Z,4.05
2023-05-20T14:55:01.364Z,4.70
2023-05-20T14:57:27.931Z,7.28
2023-05-20T14:59:54.532Z,5.38
2023-05-20T15:02:21.275Z,9.23
2023-05-20T15:04:48.693Z,9.13
2023-05-20T15:07:15.788Z,14.15
2023-05-20T15:09:43.774Z,9.45
2023-05-20T15:12:13.583Z,13.15
2023-05-20T15:14:40.182Z,12.68
2023-05-20T15:17:07.901Z,11.43
2023-05-20T15:19:34.707Z,11.27
2023-05-20T15:22:01.429Z,14.30
2023-05-20T15:24:28.008Z,15.55
2023-05-20T15:26:55.082Z,11.55
2023-05-20T15:29:22.435Z,11.55
2023-05-20T15:31:49.179Z,10.43
2023-05-20T15:34:15.800Z,10.98
2023-05-20T15:36:42.361Z,12.27
2023-05-20T15:39:09.432Z,11.23
2023-05-20T15:41:40.418Z,9.88
2023-05-20T15:44:07.269Z,10.57
2023-05-20T15:46:33.956Z,9.27
2023-05-20T15:49:00.954Z,8.05
2023-05-20T15:51:27.544Z,8.52
2023-05-20T15:53:54.167Z,8.18
2023-05-20T15:56:21.765Z,6.70
2023-05-20T15:58:48.790Z,6.53
2023-05-20T16:01:15.626Z,10.77
2023-05-20T16:03:43.559Z,8.35
2023-05-20T16:06:11.795Z,7.40
2023-05-20T16:08:38.750Z,7.43
2023-05-20T16:11:07.570Z,6.72
2023-05-20T16:13:34.273Z,6.28
2023-05-20T16:16:00.962Z,7.75
2023-05-20T16:18:29.592Z,7.50
2023-05-20T16:20:57.303Z,7.47
2023-05-20T16:23:24.766Z,5.88
2023-05-20T16:25:51.504Z,9.27
2023-05-20T16:28:18.294Z,6.45
2023-05-20T16:30:44.868Z,4.85
2023-05-20T16:33:13.317Z,5.90
2023-05-20T16:35:40.249Z,4.43
2023-05-20T16:38:07.042Z,5.45
2023-05-20T16:40:34.028Z,5.40
2023-05-20T16:43:01.423Z,4.20
2023-05-20T16:45:28.160Z,6.35
2023-05-20T16:47:55.659Z,3.33
2023-05-20T16:50:22.389Z,4.78
2023-05-20T16:52:48.980Z,3.38
2023-05-20T16:55:15.609Z,3.88
2023-05-20T16:57:43.268Z,4.10
2023-05-20T17:00:11.726Z,5.03
2023-05-20T17:02:38.406Z,3.92
2023-05-20T17:05:05.433Z,3.60
2023-05-20T17:07:33.443Z,4.72
2023-05-20T17:10:00.536Z,5.68
2023-05-20T17:12:27.477Z,4.50
2023-05-20T17:14:54.123Z,4.10
2023-05-20T17:17:21.294Z,4.40
2023-05-20T17:19:47.843Z,3.53
2023-05-20T17:22:14.555Z,2.80
2023-05-20T17:24:41.210Z,3.70
2023-05-20T17:27:07.844Z,3.28
2023-05-20T17:29:34.586Z,2.78
2023-05-20T17:32:01.302Z,2.33
2023-05-20T17:34:27.906Z,3.15
2023-05-20T17:36:54.459Z,3.53
2023-05-20T17:39:21.503Z,3.40
2023-05-20T17:41:48.053Z,3.47
2023-05-20T17:44:14.789Z,2.55
2023-05-20T17:46:41.713Z,4.63
2023-05-20T17:49:08.443Z,4.80
2023-05-20T17:51:35.185Z,3.90
2023-05-20T17:54:01.904Z,2.95
2023-05-20T17:56:29.012Z,2.72
2023-05-20T17:58:56.243Z,2.78
2023-05-20T18:01:23.419Z,1.98
2023-05-20T18:03:50.317Z,2.70
2023-05-20T18:06:18.055Z,3.13
2023-05-20T18:08:44.741Z,3.63
2023-05-20T18:11:11.348Z,2.28
2023-05-20T18:13:37.957Z,2.33
2023-05-20T18:16:05.079Z,2.47
2023-05-20T18:18:31.764Z,2.47
2023-05-20T18:20:58.327Z,2.17
2023-05-20T18:23:24.876Z,3.25
2023-05-20T18:25:51.632Z,3.25
2023-05-20T18:28:18.248Z,2.47
2023-05-20T18:30:44.790Z,3.53
2023-05-20T18:33:11.732Z,2.85
2023-05-20T18:35:39.333Z,2.85
2023-05-20T18:38:05.968Z,2.85
2023-05-20T18:40:32.626Z,1.52
2023-05-20T18:42:59.316Z,1.92
2023-05-20T18:45:26.251Z,2.33
2023-05-20T18:47:54.434Z,1.73
2023-05-20T18:50:21.118Z,2.38
2023-05-20T18:52:47.754Z,2.10
2023-05-20T18:55:14.516Z,1.55
2023-05-20T18:57:41.284Z,2.28
2023-05-20T19:00:12.060Z,2.38
2023-05-20T19:02:40.193Z,2.55
2023-05-20T19:05:08.262Z,2.25
2023-05-20T19:07:35.020Z,2.38
2023-05-20T19:10:02.028Z,1.98
2023-05-20T19:12:28.965Z,1.63
2023-05-20T19:14:55.586Z,2.17
2023-05-20T19:17:22.336Z,1.63
2023-05-20T19:19:49.305Z,3.03
2023-05-20T19:22:16.248Z,1.73
2023-05-20T19:24:42.887Z,1.63
2023-05-20T19:27:09.404Z,1.85
2023-05-20T19:29:35.982Z,1.40
2023-05-20T19:32:02.796Z,1.80
2023-05-20T19:34:29.708Z,1.45
2023-05-20T19:36:57.042Z,2.03
2023-05-20T19:39:23.804Z,1.35
2023-05-20T19:41:50.500Z,1.30
2023-05-20T19:44:17.062Z,1.85
2023-05-20T19:46:43.625Z,1.25
2023-05-20T19:49:10.139Z,2.28
2023-05-20T19:51:37.126Z,2.75
2023-05-20T19:54:03.721Z,1.63
2023-05-20T19:56:30.357Z,1.52
2023-05-20T19:59:01.487Z,2.10
2023-05-20T20:01:28.859Z,2.10
2023-05-20T20:03:55.722Z,1.60
2023-05-20T20:06:22.409Z,1.92
2023-05-20T20:08:49.250Z,2.58
2023-05-20T20:11:15.838Z,3.00
2023-05-20T20:13:42.550Z,3.05
2023-05-20T20:16:09.186Z,4.20
2023-05-20T20:18:36.055Z,2.15
2023-05-20T20:21:05.948Z,3.65
2023-05-20T20:23:33.126Z,7.70
2023-05-20T20:25:59.722Z,13.20
2023-05-20T20:28:26.324Z,2.45
2023-05-20T20:30:53.092Z,9.68
2023-05-20T20:33:19.801Z,3.03
2023-05-20T20:35:46.803Z,2.67
2023-05-20T20:38:13.585Z,2.95
2023-05-20T20:40:44.824Z,4.85
2023-05-20T20:43:20.643Z,1.83
2023-05-20T20:45:47.926Z,2.15
2023-05-20T20:48:18.838Z,1.60
2023-05-20T20:50:47.731Z,3.38
2023-05-20T20:53:17.031Z,4.47
2023-05-20T20:55:44.015Z,1.95
2023-05-20T20:58:10.718Z,3.55
2023-05-20T21:00:40.131Z,3.42
2023-05-20T21:03:10.810Z,1.63
2023-05-20T21:05:38.985Z,2.78
2023-05-20T21:08:08.236Z,4.68
2023-05-20T21:10:36.976Z,1.50
2023-05-20T21:13:03.957Z,2.30
2023-05-20T21:15:30.626Z,2.15
2023-05-20T21:17:57.211Z,1.80
2023-05-20T21:20:24.001Z,1.58
2023-05-20T21:22:50.584Z,2.67
2023-05-20T21:25:17.284Z,2.38
2023-05-20T21:27:43.902Z,1.75
2023-05-20T21:30:11.492Z,1.90
2023-05-20T21:32:38.766Z,2.13
2023-05-20T21:35:06.004Z,2.50
2023-05-20T21:37:32.556Z,2.35
2023-05-20T21:39:59.098Z,3.70
2023-05-20T21:42:25.987Z,1.10
2023-05-20T21:44:52.570Z,1.30
2023-05-20T21:47:20.653Z,1.45
2023-05-20T21:49:48.213Z,4.55
2023-05-20T21:52:14.898Z,1.20
2023-05-20T21:54:41.917Z,2.42
2023-05-20T21:57:08.497Z,1.58
2023-05-20T21:59:35.130Z,1.95
2023-05-20T22:02:01.903Z,1.17
2023-05-20T22:04:28.808Z,2.13
2023-05-20T22:06:56.261Z,1.25
2023-05-20T22:09:22.927Z,1.38
2023-05-20T22:11:49.762Z,1.40
2023-05-20T22:14:16.960Z,7.60
2023-05-20T22:16:46.581Z,1.48
2023-05-20T22:19:17.130Z,1.20
2023-05-20T22:24:17.774Z,1.30
2023-05-20T22:26:44.569Z,2.25
2023-05-20T22:29:11.151Z,1.60
2023-05-20T22:31:38.193Z,1.50
2023-05-20T22:34:05.685Z,1.20
2023-05-20T22:36:36.384Z,1.38
2023-05-20T22:39:04.577Z,1.17
2023-05-20T22:41:31.460Z,0.98
2023-05-20T22:43:58.601Z,1.45
2023-05-20T22:46:25.831Z,1.73
2023-05-20T22:48:53.150Z,1.52
2023-05-20T22:51:21.363Z,1.30
2023-05-20T22:53:48.719Z,1.60
2023-05-20T22:56:16.206Z,1.63
2023-05-20T22:58:43.983Z,1.88
2023-05-20T23:01:10.683Z,1.48
2023-05-20T23:03:38.307Z,1.30
2023-05-20T23:06:04.932Z,1.60
2023-05-20T23:08:31.522Z,1.30
2023-05-20T23:10:58.128Z,5.00
2023-05-20T23:13:24.971Z,1.95
2023-05-20T23:15:51.672Z,1.50
2023-05-20T23:18:18.620Z,2.15
2023-05-20T23:20:45.249Z,2.83
2023-05-20T23:23:12.058Z,1.20
2023-05-20T23:25:39.272Z,2.70
2023-05-20T23:28:06.138Z,1.02
2023-05-20T23:30:32.735Z,1.70
2023-05-20T23:32:59.733Z,2.05
2023-05-20T23:35:26.425Z,1.13
2023-05-20T23:37:52.979Z,1.52
2023-05-20T23:40:19.585Z,1.73
2023-05-20T23:42:46.344Z,2.13
2023-05-20T23:45:13.320Z,1.20
2023-05-20T23:47:40.054Z,1.33
2023-05-20T23:50:06.960Z,1.63
2023-05-20T23:52:33.502Z,1.20
2023-05-20T23:55:00.280Z,1.13
2023-05-20T23:57:27.032Z,1.33
2023-05-20T23:59:53.566Z,1.25
